Time;durP1;ratioP1;P1;durP2;ratioP2;P2;SDS_P1;SDS_P2;PMS_P1;PMS_P2;Temp;Humidity;BMP_temperature;BMP_pressure;BME280_temperature;BME280_humidity;BME280_pressure;Samples;Min_cycle;Max_cycle;Signal;HPM_P1;HPM_P2
2021/06/15 00:01:56;;;;;;;13.18;7.22;;;;;;;19.97;59.43;101641.13;5027170;28;20040;-69
2021/06/15 00:04:21;;;;;;;9.25;5.78;;;;;;;19.89;59.69;101637.84;5047649;28;20123;-69
2021/06/15 00:06:47;;;;;;;14.68;7.30;;;;;;;19.75;60.05;101634.34;5029004;28;21850;-69
2021/06/15 00:09:12;;;;;;;13.05;6.50;;;;;;;19.74;60.18;101641.44;5048196;28;20498;-69
2021/06/15 00:11:37;;;;;;;12.52;6.85;;;;;;;19.75;60.08;101637.78;5048917;28;20045;-69
2021/06/15 00:14:04;;;;;;;12.77;7.07;;;;;;;19.76;60.13;101638.59;5047091;28;20043;-69
2021/06/15 00:16:30;;;;;;;13.15;7.13;;;;;;;19.74;60.02;101645.88;5047517;28;20131;-70
2021/06/15 00:18:56;;;;;;;10.82;6.82;;;;;;;19.71;60.20;101641.78;5051646;28;20025;-70
2021/06/15 00:21:22;;;;;;;14.95;7.30;;;;;;;19.67;60.55;101645.03;5046346;28;20025;-70
2021/06/15 00:23:47;;;;;;;10.25;6.32;;;;;;;19.62;60.64;101642.97;5048296;28;20064;-69
2021/06/15 00:26:13;;;;;;;15.38;7.47;;;;;;;19.60;60.70;101634.47;5031687;28;20032;-69
2021/06/15 00:28:38;;;;;;;12.10;7.82;;;;;;;19.58;60.54;101632.03;5048285;28;20480;-69
2021/06/15 00:31:04;;;;;;;16.13;7.55;;;;;;;19.58;60.62;101636.47;5043519;28;20049;-69
2021/06/15 00:33:30;;;;;;;12.60;7.75;;;;;;;19.57;60.74;101637.47;5050052;28;20045;-69
2021/06/15 00:35:55;;;;;;;12.60;7.40;;;;;;;19.55;60.85;101637.69;5027401;28;20021;-69
2021/06/15 00:38:21;;;;;;;10.85;7.50;;;;;;;19.55;60.83;101642.13;5047035;28;20044;-69
2021/06/15 00:40:46;;;;;;;11.65;7.18;;;;;;;19.54;60.78;101637.88;5039513;28;20032;-69
2021/06/15 00:43:12;;;;;;;17.38;8.38;;;;;;;19.52;60.77;101642.53;5051523;28;20598;-69
2021/06/15 00:45:38;;;;;;;14.52;6.40;;;;;;;19.40;61.48;101655.41;5036342;28;20032;-69
2021/06/15 00:48:05;;;;;;;10.30;6.35;;;;;;;19.31;61.95;101648.66;5043520;28;20450;-69
2021/06/15 00:50:33;;;;;;;10.65;6.07;;;;;;;19.25;62.09;101643.19;5030921;28;20893;-69
2021/06/15 00:52:58;;;;;;;14.60;7.05;;;;;;;19.24;62.24;101646.81;5047304;28;20032;-69
2021/06/15 00:55:25;;;;;;;10.77;6.20;;;;;;;19.24;61.98;101641.56;5049043;28;20037;-69
2021/06/15 00:57:52;;;;;;;10.13;6.90;;;;;;;19.20;62.17;101648.22;5008239;28;20052;-69
2021/06/15 01:00:18;;;;;;;10.55;6.78;;;;;;;19.11;62.70;101643.28;5043240;28;20026;-69
2021/06/15 01:02:45;;;;;;;9.13;6.35;;;;;;;19.02;62.94;101647.88;5021444;28;20126;-69
2021/06/15 01:05:14;;;;;;;12.57;7.30;;;;;;;18.95;63.23;101652.25;5027724;28;20029;-69
2021/06/15 01:08:11;;;;;;;21.02;8.90;;;;;;;18.83;63.92;101650.16;5035153;28;20046;-69
2021/06/15 01:10:58;;;;;;;;;;;;;;;18.65;64.77;101653.22;5061676;28;20060;-69
2021/06/15 01:14:00;;;;;;;10.95;7.10;;;;;;;18.52;65.39;101652.31;5026813;28;20320;-69
2021/06/15 01:16:34;;;;;;;16.60;7.20;;;;;;;18.46;65.41;101654.66;5012844;28;20567;-69
2021/06/15 01:19:16;;;;;;;12.90;7.57;;;;;;;18.47;65.55;101652.84;5047053;28;20025;-69
2021/06/15 01:22:14;;;;;;;10.93;6.97;;;;;;;18.44;65.72;101650.59;5045035;28;20033;-69
2021/06/15 01:24:56;;;;;;;14.27;8.07;;;;;;;18.40;65.75;101650.19;5022748;28;20036;-69
2021/06/15 01:27:44;;;;;;;13.02;7.38;;;;;;;18.38;66.03;101654.78;5026789;28;20063;-69
2021/06/15 01:30:13;;;;;;;14.65;8.07;;;;;;;18.37;65.98;101657.63;5045050;28;20033;-69
2021/06/15 01:32:51;;;;;;;16.50;9.10;;;;;;;18.36;66.05;101653.34;5030975;28;20044;-69
2021/06/15 01:35:21;;;;;;;15.82;9.60;;;;;;;18.35;66.01;101657.00;5036170;28;20028;-69
2021/06/15 01:37:57;;;;;;;14.45;8.98;;;;;;;18.32;66.40;101659.97;5042182;28;20536;-69
2021/06/15 01:40:29;;;;;;;17.02;9.52;;;;;;;18.27;66.33;101653.47;5040409;28;20036;-69
2021/06/15 01:43:05;;;;;;;15.63;8.80;;;;;;;18.29;66.23;101655.91;5058277;28;20032;-69
2021/06/15 01:45:36;;;;;;;16.77;9.85;;;;;;;18.29;66.23;101658.53;5043781;28;20032;-69
2021/06/15 01:48:10;;;;;;;17.98;8.88;;;;;;;18.29;66.00;101664.59;5055427;28;20496;-70
2021/06/15 01:50:43;;;;;;;16.52;9.80;;;;;;;18.31;66.11;101666.22;5034339;28;20170;-69
2021/06/15 01:53:13;;;;;;;18.83;10.50;;;;;;;18.27;66.13;101657.88;5045159;28;20060;-69
2021/06/15 01:55:44;;;;;;;18.13;10.18;;;;;;;18.19;66.83;101660.63;5028474;28;20025;-69
2021/06/15 01:58:13;;;;;;;;;;;;;;;18.09;67.21;101653.88;5035558;28;20583;-69
2021/06/15 02:00:39;;;;;;;19.98;11.55;;;;;;;17.99;67.17;101658.63;5028938;28;19912;-69
2021/06/15 02:03:06;;;;;;;20.17;11.07;;;;;;;17.93;67.61;101659.34;5047881;28;20052;-69
2021/06/15 02:05:49;;;;;;;16.38;9.68;;;;;;;17.85;67.99;101659.44;5046369;28;20044;-69
2021/06/15 02:08:25;;;;;;;16.20;10.48;;;;;;;17.75;68.43;101659.72;5030130;28;20060;-69
2021/06/15 02:10:52;;;;;;;19.80;10.07;;;;;;;17.69;68.77;101657.81;5016324;28;20025;-70
2021/06/15 02:13:38;;;;;;;21.33;10.30;;;;;;;17.69;68.90;101655.19;5024547;28;20036;-69
2021/06/15 02:16:29;;;;;;;15.90;10.32;;;;;;;17.67;68.86;101659.81;5029677;28;20649;-69
2021/06/15 02:19:16;;;;;;;18.52;11.85;;;;;;;17.70;68.76;101660.22;5055425;28;20029;-69
2021/06/15 02:21:52;;;;;;;21.92;10.70;;;;;;;17.71;68.49;101656.63;5022038;28;20032;-69
2021/06/15 02:24:22;;;;;;;18.45;11.00;;;;;;;17.73;68.37;101663.50;5028830;28;20029;-69
2021/06/15 02:26:50;;;;;;;21.30;11.68;;;;;;;17.73;68.45;101663.50;5033908;28;21070;-69
2021/06/15 02:29:16;;;;;;;23.10;13.10;;;;;;;17.68;68.68;101656.97;5030217;28;20457;-69
2021/06/15 02:31:57;;;;;;;19.30;11.98;;;;;;;17.58;68.95;101655.66;5030313;28;20040;-69
2021/06/15 02:34:26;;;;;;;17.98;12.02;;;;;;;17.49;69.36;101650.47;5047740;28;20085;-69
2021/06/15 02:36:57;;;;;;;;;;;;;;;17.45;69.50;101662.34;5027558;28;20069;-70
2021/06/15 02:39:32;;;;;;;16.58;10.30;;;;;;;17.42;69.39;101657.47;5037763;28;19927;-69
2021/06/15 02:41:59;;;;;;;18.27;12.00;;;;;;;17.42;69.24;101659.25;5032429;28;20048;-69
2021/06/15 02:44:30;;;;;;;19.58;12.13;;;;;;;17.37;69.54;101669.50;5027299;28;20029;-69
2021/06/15 02:46:58;;;;;;;21.73;12.02;;;;;;;17.28;69.97;101672.16;5026384;28;20032;-69
2021/06/15 02:49:31;;;;;;;18.60;12.73;;;;;;;17.24;70.13;101668.28;5031873;28;20033;-69
2021/06/15 02:52:17;;;;;;;19.83;11.13;;;;;;;17.13;70.79;101666.91;5030324;28;20024;-69
2021/06/15 02:54:47;;;;;;;19.23;13.25;;;;;;;17.10;70.76;101667.28;5031276;28;20029;-69
2021/06/15 02:57:16;;;;;;;22.20;13.18;;;;;;;17.09;71.24;101668.25;5030494;28;20086;-69
2021/06/15 02:59:43;;;;;;;23.40;12.63;;;;;;;17.08;71.41;101668.44;5032200;28;20029;-69
2021/06/15 03:02:08;;;;;;;20.98;12.90;;;;;;;17.09;71.32;101659.59;5042366;28;20021;-69
2021/06/15 03:04:46;;;;;;;22.15;13.13;;;;;;;17.15;70.85;101665.94;5042797;28;20528;-69
2021/06/15 03:07:13;;;;;;;22.10;12.73;;;;;;;17.19;70.52;101670.63;5030354;28;20035;-69
2021/06/15 03:09:39;;;;;;;20.02;13.65;;;;;;;17.20;70.68;101672.25;5032901;28;20071;-70
2021/06/15 03:12:09;;;;;;;25.65;14.32;;;;;;;17.19;71.19;101677.69;5027324;28;20481;-69
2021/06/15 03:14:37;;;;;;;27.42;15.80;;;;;;;17.15;71.28;101677.22;5032070;28;20043;-70
2021/06/15 03:17:06;;;;;;;21.15;13.73;;;;;;;17.05;71.68;101681.91;5049120;28;20024;-69
2021/06/15 03:19:55;;;;;;;25.13;14.45;;;;;;;16.97;71.69;101684.56;5048580;28;20033;-70
2021/06/15 03:22:22;;;;;;;24.70;15.70;;;;;;;16.90;72.43;101681.88;5011038;28;20754;-69
2021/06/15 03:24:55;;;;;;;24.40;16.80;;;;;;;16.88;72.66;101676.00;5039376;28;20043;-69
2021/06/15 03:27:33;;;;;;;32.80;19.02;;;;;;;16.83;73.10;101686.97;5042325;28;20078;-69
2021/06/15 03:30:07;;;;;;;27.02;15.40;;;;;;;16.77;73.21;101679.00;5028882;28;20099;-70
2021/06/15 03:32:41;;;;;;;33.78;17.55;;;;;;;16.77;73.40;101684.22;5031197;28;20033;-71
2021/06/15 03:35:09;;;;;;;25.77;16.45;;;;;;;16.79;73.27;101685.69;5028123;28;20025;-71
2021/06/15 03:37:37;;;;;;;24.13;14.48;;;;;;;16.85;73.01;101687.63;5032144;28;20070;-71
2021/06/15 03:40:04;;;;;;;27.65;16.98;;;;;;;16.87;72.90;101690.06;5038790;28;20028;-71
2021/06/15 03:42:38;;;;;;;26.75;14.70;;;;;;;16.89;72.75;101685.47;5047500;28;20182;-71
2021/06/15 03:45:06;;;;;;;29.83;16.73;;;;;;;16.96;72.71;101688.19;5049441;28;20040;-72
2021/06/15 03:47:34;;;;;;;25.02;15.68;;;;;;;16.94;72.98;101691.00;5050560;28;20039;-71
2021/06/15 03:50:00;;;;;;;32.15;16.92;;;;;;;16.96;72.74;101688.19;5050588;28;20481;-71
2021/06/15 03:52:30;;;;;;;24.65;13.90;;;;;;;17.01;72.54;101693.69;5027477;28;20037;-72
2021/06/15 03:54:56;;;;;;;24.27;15.70;;;;;;;17.05;72.45;101692.38;5043849;28;20371;-72
2021/06/15 03:57:24;;;;;;;32.08;17.17;;;;;;;17.07;72.16;101695.63;5044084;28;20527;-72
2021/06/15 03:59:51;;;;;;;30.58;17.75;;;;;;;17.03;72.72;101703.03;5042015;28;20043;-71
2021/06/15 04:02:19;;;;;;;32.97;17.95;;;;;;;16.99;73.24;101707.00;5048020;28;20036;-72
2021/06/15 04:04:46;;;;;;;24.90;16.38;;;;;;;16.94;73.39;101719.81;5048395;28;20090;-72
2021/06/15 04:07:17;;;;;;;28.90;16.83;;;;;;;16.97;73.44;101716.84;5043600;28;20728;-71
2021/06/15 04:09:45;;;;;;;32.95;19.10;;;;;;;16.98;73.81;101728.94;5037774;28;20499;-72
2021/06/15 04:12:11;;;;;;;39.95;20.50;;;;;;;17.04;73.67;101722.19;5025919;28;20068;-71
2021/06/15 04:14:38;;;;;;;36.70;20.65;;;;;;;17.00;74.13;101731.38;5027152;28;20051;-72
2021/06/15 04:17:06;;;;;;;27.35;17.92;;;;;;;16.96;74.15;101732.75;5040294;28;20397;-72
2021/06/15 04:19:37;;;;;;;34.35;21.20;;;;;;;16.94;74.54;101740.75;5047767;28;20047;-72
2021/06/15 04:22:05;;;;;;;26.48;16.95;;;;;;;16.93;74.44;101741.75;5036620;28;20037;-70
2021/06/15 04:24:39;;;;;;;32.60;21.42;;;;;;;16.98;74.52;101744.66;5029451;28;20083;-71
2021/06/15 04:27:06;;;;;;;34.30;20.83;;;;;;;16.99;74.36;101748.91;5043455;28;20029;-70
2021/06/15 04:29:32;;;;;;;35.83;21.35;;;;;;;17.00;74.29;101747.09;5047094;28;20045;-71
2021/06/15 04:32:01;;;;;;;40.92;20.85;;;;;;;17.00;73.90;101750.53;5045991;28;20043;-70
2021/06/15 04:34:31;;;;;;;28.40;20.00;;;;;;;16.92;74.69;101753.22;5024356;28;20046;-71
2021/06/15 04:37:01;;;;;;;27.65;17.00;;;;;;;16.88;74.81;101751.94;5016471;28;20064;-71
2021/06/15 04:39:36;;;;;;;32.97;18.45;;;;;;;16.89;74.85;101749.13;5021644;28;20109;-71
2021/06/15 04:42:05;;;;;;;26.95;17.33;;;;;;;16.91;74.56;101752.41;5039545;28;20369;-71
2021/06/15 04:44:36;;;;;;;32.03;17.33;;;;;;;16.91;74.54;101741.94;5033007;28;20090;-69
2021/06/15 04:47:13;;;;;;;36.33;19.48;;;;;;;16.91;74.47;101755.03;5029313;28;20116;-71
2021/06/15 04:50:04;;;;;;;31.23;16.67;;;;;;;16.96;74.44;101745.84;5052115;28;20040;-71
2021/06/15 04:52:31;;;;;;;33.47;19.05;;;;;;;17.02;74.07;101750.38;5054908;28;20041;-70
2021/06/15 04:55:00;;;;;;;27.13;17.80;;;;;;;17.05;73.94;101755.25;5051141;28;20124;-71
2021/06/15 04:57:29;;;;;;;30.63;17.13;;;;;;;17.19;73.38;101759.72;5048093;28;20064;-71
2021/06/15 04:59:59;;;;;;;26.67;15.15;;;;;;;17.21;73.49;101749.88;5037112;28;20053;-70
2021/06/15 05:02:27;;;;;;;33.75;17.98;;;;;;;17.24;73.36;101752.16;5043619;28;20037;-70
2021/06/15 05:04:53;;;;;;;25.10;14.63;;;;;;;17.31;73.27;101760.13;5040620;28;20040;-71
2021/06/15 05:07:20;;;;;;;26.98;17.90;;;;;;;17.29;73.33;101773.41;5043295;28;20500;-70
2021/06/15 05:09:51;;;;;;;30.63;16.27;;;;;;;17.30;73.48;101769.78;5044131;28;20087;-71
2021/06/15 05:12:19;;;;;;;30.45;17.45;;;;;;;17.28;73.38;101779.63;5034784;28;20455;-70
2021/06/15 05:14:45;;;;;;;23.90;14.60;;;;;;;17.38;73.21;101771.50;5055339;28;20041;-70
2021/06/15 05:17:13;;;;;;;30.20;16.80;;;;;;;17.36;73.20;101770.88;5050666;28;20439;-70
2021/06/15 05:19:40;;;;;;;28.33;16.48;;;;;;;17.47;72.67;101767.03;5043882;28;20043;-70
2021/06/15 05:22:24;;;;;;;28.75;15.77;;;;;;;17.62;71.84;101767.06;5048354;28;20132;-70
2021/06/15 05:24:52;;;;;;;28.40;16.23;;;;;;;17.64;71.84;101768.50;5047490;28;20049;-70
2021/06/15 05:27:20;;;;;;;22.10;14.90;;;;;;;17.61;71.49;101750.50;5034621;28;20052;-70
2021/06/15 05:29:46;;;;;;;28.48;15.25;;;;;;;17.70;71.26;101753.84;5042898;28;20036;-70
2021/06/15 05:32:12;;;;;;;25.80;15.13;;;;;;;17.86;71.13;101758.16;5044523;28;20061;-70
2021/06/15 05:34:38;;;;;;;26.73;15.50;;;;;;;18.01;70.69;101756.34;5054504;28;20114;-70
2021/06/15 05:37:06;;;;;;;27.42;13.80;;;;;;;18.06;70.90;101764.47;5035358;28;20190;-70
2021/06/15 05:39:32;;;;;;;22.02;12.93;;;;;;;18.17;69.95;101760.56;5057849;28;20040;-70
2021/06/15 05:41:58;;;;;;;20.42;12.70;;;;;;;18.40;69.32;101764.88;5050114;28;20028;-70
2021/06/15 05:44:24;;;;;;;29.50;14.40;;;;;;;18.60;68.44;101768.53;5048837;28;20033;-69
2021/06/15 05:46:49;;;;;;;24.98;13.95;;;;;;;18.81;67.14;101773.00;5030360;28;20044;-70
2021/06/15 05:49:15;;;;;;;22.08;11.55;;;;;;;19.01;66.73;101769.78;5046022;28;20112;-70
2021/06/15 05:51:40;;;;;;;21.77;11.45;;;;;;;19.27;65.89;101761.31;5038496;28;20067;-70
2021/06/15 05:54:07;;;;;;;24.92;11.00;;;;;;;19.59;64.66;101753.81;5049058;28;20047;-69
2021/06/15 05:56:33;;;;;;;23.15;11.90;;;;;;;19.96;63.06;101752.66;5031696;28;20029;-70
2021/06/15 05:58:58;;;;;;;16.48;10.02;;;;;;;20.26;62.21;101757.66;5033374;28;20032;-70
2021/06/15 06:01:27;;;;;;;20.50;11.65;;;;;;;20.47;61.40;101758.53;5028914;28;20124;-69
2021/06/15 06:04:06;;;;;;;28.27;11.35;;;;;;;20.79;60.36;101768.38;5041890;28;20029;-70
2021/06/15 06:09:15;;;;;;;23.05;12.95;;;;;;;20.89;59.79;101780.31;5051973;28;20393;-70
2021/06/15 06:11:41;;;;;;;16.50;9.35;;;;;;;20.85;60.20;101779.09;5047678;28;20044;-70
2021/06/15 06:14:07;;;;;;;21.50;11.32;;;;;;;20.74;60.87;101776.06;5045165;28;20440;-71
2021/06/15 06:16:33;;;;;;;22.70;11.60;;;;;;;20.88;60.49;101782.16;5048066;28;20044;-71
2021/06/15 06:19:00;;;;;;;21.20;10.82;;;;;;;21.13;60.57;101779.72;5046312;28;20028;-70
2021/06/15 06:21:27;;;;;;;15.30;9.80;;;;;;;21.33;58.90;101776.28;5046384;28;20059;-70
2021/06/15 06:23:53;;;;;;;20.40;10.77;;;;;;;21.52;58.04;101788.69;5034284;28;20103;-71
2021/06/15 06:26:18;;;;;;;21.95;11.60;;;;;;;21.78;56.96;101782.53;5053255;28;20155;-70
2021/06/15 06:28:43;;;;;;;22.00;9.98;;;;;;;22.15;56.54;101785.47;5044113;28;20444;-71
2021/06/15 06:31:09;;;;;;;19.23;10.02;;;;;;;22.04;56.09;101785.31;5027286;28;20033;-71
2021/06/15 06:33:35;;;;;;;18.70;9.60;;;;;;;22.13;55.99;101794.63;5044553;28;20040;-71
2021/06/15 06:36:00;;;;;;;23.05;10.50;;;;;;;22.19;55.25;101791.16;5020086;28;20029;-71
2021/06/15 06:38:25;;;;;;;17.00;9.23;;;;;;;22.56;53.87;101791.41;5026842;28;20520;-71
2021/06/15 06:40:51;;;;;;;19.27;9.43;;;;;;;22.74;53.18;101785.41;5020447;28;20037;-71
2021/06/15 06:43:16;;;;;;;20.58;11.02;;;;;;;23.14;52.76;101785.16;5041527;28;20099;-71
2021/06/15 06:45:42;;;;;;;19.25;8.77;;;;;;;23.46;52.13;101791.16;5045283;28;20025;-70
2021/06/15 06:48:08;;;;;;;17.70;9.15;;;;;;;23.73;50.92;101790.09;5053036;28;20521;-71
2021/06/15 06:50:34;;;;;;;18.52;8.73;;;;;;;23.81;50.73;101785.38;5037827;28;20037;-71
2021/06/15 06:53:00;;;;;;;17.98;10.05;;;;;;;24.26;50.50;101787.69;5045028;28;20087;-71
2021/06/15 06:55:28;;;;;;;19.58;9.65;;;;;;;24.06;50.19;101795.06;5037462;28;20037;-71
2021/06/15 06:57:54;;;;;;;76.07;36.50;;;;;;;24.04;50.13;101789.97;5047254;28;20440;-71
2021/06/15 07:00:20;;;;;;;19.17;11.23;;;;;;;24.05;49.27;101796.09;5047798;28;20449;-72
2021/06/15 07:02:48;;;;;;;20.23;9.50;;;;;;;24.15;49.00;101801.69;5041274;28;20067;-72
2021/06/15 07:05:14;;;;;;;21.52;9.93;;;;;;;24.17;49.24;101801.47;5030101;28;20043;-71
2021/06/15 07:07:39;;;;;;;11.93;7.57;;;;;;;24.56;48.32;101802.78;5012587;28;20037;-71
2021/06/15 07:10:05;;;;;;;13.43;7.43;;;;;;;24.77;47.61;101811.28;5045677;28;20033;-72
2021/06/15 07:12:31;;;;;;;17.98;9.15;;;;;;;24.84;47.36;101799.53;5048833;28;20485;-72
2021/06/15 07:14:56;;;;;;;14.02;8.18;;;;;;;25.15;47.56;101794.97;5027974;28;20034;-72
2021/06/15 07:17:22;;;;;;;16.92;8.43;;;;;;;25.41;46.69;101799.06;5053618;28;20043;-72
2021/06/15 07:19:47;;;;;;;16.05;8.18;;;;;;;25.33;45.62;101804.69;5051535;28;20036;-70
2021/06/15 07:22:12;;;;;;;14.45;6.55;;;;;;;25.27;46.24;101800.31;5038304;28;20108;-71
2021/06/15 07:24:38;;;;;;;18.67;7.22;;;;;;;25.69;45.14;101794.06;5026756;28;20039;-72
2021/06/15 07:27:04;;;;;;;16.00;8.27;;;;;;;25.97;44.61;101798.66;5045864;28;20112;-72
2021/06/15 07:29:29;;;;;;;27.20;9.43;;;;;;;26.18;44.92;101795.38;5041427;28;20048;-72
2021/06/15 07:31:55;;;;;;;17.33;8.13;;;;;;;26.25;44.44;101805.06;5045312;28;20036;-72
2021/06/15 07:34:21;;;;;;;17.60;7.22;;;;;;;26.54;43.21;101796.03;5045903;28;20108;-72
2021/06/15 07:36:46;;;;;;;10.40;5.95;;;;;;;26.84;43.22;101794.94;5023526;28;20470;-72
2021/06/15 07:39:12;;;;;;;13.68;6.60;;;;;;;26.79;42.17;101794.88;5046537;28;20078;-71
2021/06/15 07:41:38;;;;;;;15.48;7.20;;;;;;;26.80;42.01;101804.47;5037960;28;20072;-72
2021/06/15 07:44:05;;;;;;;19.67;6.80;;;;;;;26.78;41.65;101807.34;5045634;28;20029;-72
2021/06/15 07:46:31;;;;;;;17.38;7.05;;;;;;;26.73;42.66;101811.78;5036461;28;20029;-70
2021/06/15 07:48:56;;;;;;;14.52;6.65;;;;;;;26.55;41.32;101805.59;5045138;28;20040;-70
2021/06/15 07:51:22;;;;;;;13.88;6.80;;;;;;;26.39;42.10;101801.88;5047063;28;20666;-70
2021/06/15 07:53:48;;;;;;;12.93;5.53;;;;;;;26.60;42.54;101807.59;5046157;28;20480;-69
2021/06/15 07:56:14;;;;;;;13.35;5.97;;;;;;;27.04;41.79;101809.63;5040095;28;20155;-70
2021/06/15 07:58:39;;;;;;;9.38;4.28;;;;;;;27.11;40.11;101810.28;5044212;28;20155;-69
2021/06/15 08:01:05;;;;;;;15.07;5.43;;;;;;;27.28;41.33;101813.75;5022163;28;20124;-70
2021/06/15 08:03:30;;;;;;;9.88;5.68;;;;;;;27.73;40.92;101807.47;5049634;28;20039;-70
2021/06/15 08:05:56;;;;;;;15.50;5.90;;;;;;;27.60;40.09;101810.50;5036589;28;20485;-70
2021/06/15 08:08:21;;;;;;;11.20;5.95;;;;;;;27.59;39.69;101803.53;5028376;28;20025;-69
2021/06/15 08:10:47;;;;;;;8.55;4.55;;;;;;;27.98;39.01;101803.53;5026910;28;20051;-70
2021/06/15 08:13:12;;;;;;;10.48;5.30;;;;;;;27.92;37.25;101807.19;5046115;28;20384;-70
2021/06/15 08:15:38;;;;;;;8.63;4.38;;;;;;;27.72;37.97;101802.38;5051631;28;20025;-70
2021/06/15 08:18:03;;;;;;;10.40;6.38;;;;;;;27.66;38.30;101801.50;5047140;28;20116;-70
2021/06/15 08:20:28;;;;;;;11.13;5.57;;;;;;;27.46;39.45;101790.56;5030550;28;20033;-70
2021/06/15 08:22:54;;;;;;;8.85;4.63;;;;;;;27.66;37.45;101790.84;5056391;28;20116;-70
2021/06/15 08:25:19;;;;;;;10.35;4.93;;;;;;;27.65;39.28;101783.09;5042421;28;20033;-70
2021/06/15 08:27:45;;;;;;;9.85;4.68;;;;;;;27.54;38.93;101788.31;5053149;28;20056;-70
2021/06/15 08:30:11;;;;;;;9.88;3.90;;;;;;;28.02;38.05;101787.84;5032920;28;20579;-70
2021/06/15 08:32:37;;;;;;;6.72;4.38;;;;;;;28.31;37.28;101778.56;5034081;28;20546;-70
2021/06/15 08:35:05;;;;;;;9.65;3.97;;;;;;;27.94;36.59;101784.56;5042937;28;20127;-71
2021/06/15 08:37:30;;;;;;;6.90;3.33;;;;;;;27.19;38.56;101778.72;5042447;28;20021;-70
2021/06/15 08:39:55;;;;;;;8.15;3.08;;;;;;;26.95;38.46;101777.28;5059701;28;20028;-70
2021/06/15 08:42:21;;;;;;;7.78;3.00;;;;;;;26.83;39.55;101784.56;5055818;28;20032;-70
2021/06/15 08:44:46;;;;;;;7.65;4.50;;;;;;;27.40;38.54;101776.38;5035023;28;20123;-70
2021/06/15 08:47:16;;;;;;;12.65;3.78;;;;;;;27.61;38.44;101785.44;5028937;28;20029;-70
2021/06/15 08:49:45;;;;;;;8.02;3.88;;;;;;;28.06;38.20;101779.09;5042974;28;20036;-70
2021/06/15 08:52:12;;;;;;;14.57;4.70;;;;;;;27.91;37.27;101774.38;5046145;28;20029;-71
2021/06/15 08:54:38;;;;;;;8.48;3.72;;;;;;;28.07;36.90;101775.38;5041086;28;20444;-70
2021/06/15 08:57:04;;;;;;;7.68;3.35;;;;;;;28.31;37.03;101773.22;5050037;28;20481;-71
2021/06/15 08:59:30;;;;;;;11.10;3.75;;;;;;;28.25;36.83;101776.88;5033806;28;20028;-70
2021/06/15 09:02:02;;;;;;;8.05;3.20;;;;;;;28.05;36.19;101780.16;5023151;28;20054;-71
2021/06/15 09:04:28;;;;;;;7.18;3.25;;;;;;;27.95;36.08;101782.69;5042817;28;20033;-71
2021/06/15 09:06:58;;;;;;;8.35;3.45;;;;;;;27.64;36.63;101779.63;5048301;28;20067;-71
2021/06/15 09:09:37;;;;;;;6.38;3.30;;;;;;;27.63;36.79;101786.00;5047545;28;20044;-71
2021/06/15 09:12:02;;;;;;;6.97;3.10;;;;;;;27.23;36.95;101792.34;5040627;28;20120;-70
2021/06/15 09:14:42;;;;;;;8.88;2.88;;;;;;;27.43;37.78;101788.44;5048740;28;20127;-71
2021/06/15 09:17:26;;;;;;;9.57;3.45;;;;;;;27.56;37.49;101783.53;5052865;28;20481;-70
2021/06/15 09:19:52;;;;;;;8.45;2.97;;;;;;;27.78;36.20;101788.06;5045674;28;20044;-71
2021/06/15 09:22:34;;;;;;;6.47;3.55;;;;;;;27.73;37.31;101786.16;5050104;28;20049;-71
2021/06/15 09:25:01;;;;;;;19.43;4.63;;;;;;;27.79;38.22;101791.53;5030082;28;20496;-71
2021/06/15 09:27:31;;;;;;;6.75;3.50;;;;;;;27.90;38.45;101788.78;5046621;28;20033;-70
2021/06/15 09:29:58;;;;;;;11.73;4.43;;;;;;;27.80;38.76;101787.81;5046837;28;20227;-71
2021/06/15 09:32:39;;;;;;;8.43;3.75;;;;;;;28.12;37.61;101791.44;5041700;28;20044;-70
2021/06/15 09:35:13;;;;;;;6.20;2.88;;;;;;;28.21;36.75;101791.78;5027035;28;20033;-71
2021/06/15 09:37:50;;;;;;;8.05;4.40;;;;;;;28.22;37.59;101784.56;5024879;28;20064;-71
2021/06/15 09:40:21;;;;;;;9.40;4.78;;;;;;;28.24;37.25;101785.16;5055011;28;20075;-70
2021/06/15 09:42:51;;;;;;;10.60;4.57;;;;;;;28.46;37.92;101779.75;5050669;28;20043;-71
2021/06/15 09:45:22;;;;;;;19.35;5.65;;;;;;;28.65;37.38;101778.38;5060359;28;20040;-71
2021/06/15 09:47:48;;;;;;;12.75;4.95;;;;;;;28.85;37.65;101777.72;5049922;28;20060;-70
2021/06/15 09:50:14;;;;;;;12.23;5.30;;;;;;;28.85;37.17;101783.03;5027624;28;20067;-71
2021/06/15 09:52:39;;;;;;;8.80;4.55;;;;;;;28.34;36.61;101779.91;5052085;28;20040;-71
2021/06/15 09:55:07;;;;;;;9.35;5.50;;;;;;;28.24;37.01;101783.28;5042371;28;20163;-71
2021/06/15 09:57:39;;;;;;;7.75;4.00;;;;;;;27.88;37.43;101790.06;5030715;28;20084;-71
2021/06/15 10:00:05;;;;;;;9.18;4.53;;;;;;;27.63;37.38;101774.56;5049359;28;20123;-71
2021/06/15 10:02:30;;;;;;;10.02;4.18;;;;;;;27.76;36.47;101785.66;5043558;28;20710;-71
2021/06/15 10:04:56;;;;;;;9.75;3.90;;;;;;;27.49;36.61;101790.09;5049624;28;20073;-71
2021/06/15 10:07:32;;;;;;;6.47;3.42;;;;;;;27.27;36.46;101790.84;5049326;28;20025;-70
2021/06/15 10:09:59;;;;;;;5.57;3.03;;;;;;;27.32;35.12;101785.59;5053428;28;20504;-70
2021/06/15 10:12:25;;;;;;;8.35;3.22;;;;;;;27.36;35.19;101789.38;5049579;28;20548;-71
2021/06/15 10:14:54;;;;;;;5.30;2.53;;;;;;;27.73;34.83;101780.03;5052455;28;20067;-71
2021/06/15 10:17:20;;;;;;;6.22;2.50;;;;;;;27.69;34.79;101792.19;5044485;28;20109;-70
2021/06/15 10:19:46;;;;;;;5.20;2.10;;;;;;;27.72;35.04;101789.06;5054314;28;20119;-70
2021/06/15 10:22:12;;;;;;;5.45;2.67;;;;;;;27.73;34.62;101788.81;5050512;28;20071;-70
2021/06/15 10:24:38;;;;;;;9.90;3.33;;;;;;;27.57;35.73;101790.47;5049862;28;20033;-71
2021/06/15 10:27:10;;;;;;;12.02;3.65;;;;;;;27.80;36.08;101788.63;5046140;28;20602;-70
2021/06/15 10:29:37;;;;;;;8.57;3.30;;;;;;;27.95;34.92;101782.69;5036080;28;20040;-71
2021/06/15 10:32:23;;;;;;;6.50;3.33;;;;;;;27.82;34.42;101780.38;5041647;28;20060;-71
2021/06/15 10:34:57;;;;;;;6.82;2.28;;;;;;;27.87;34.02;101783.91;5038190;28;20535;-70
2021/06/15 10:37:45;;;;;;;9.45;3.53;;;;;;;27.82;33.48;101781.19;5022172;28;20048;-71
2021/06/15 10:40:14;;;;;;;5.63;2.72;;;;;;;27.43;34.29;101775.09;5043940;28;20033;-70
2021/06/15 10:43:09;;;;;;;4.68;1.48;;;;;;;27.69;34.05;101773.56;5041629;28;20021;-71
2021/06/15 10:45:34;;;;;;;5.32;1.70;;;;;;;27.69;33.13;101770.88;5027267;28;20132;-71
2021/06/15 10:48:06;;;;;;;5.13;1.42;;;;;;;27.51;32.57;101772.81;5024871;28;20100;-70
2021/06/15 10:50:44;;;;;;;10.15;1.70;;;;;;;27.27;31.71;101774.88;5035328;28;20051;-71
2021/06/15 10:53:11;;;;;;;9.82;2.15;;;;;;;27.15;33.39;101776.81;5045083;28;20043;-70
2021/06/15 10:56:01;;;;;;;2.45;1.40;;;;;;;27.33;31.86;101778.41;5039559;28;20572;-71
2021/06/15 10:58:36;;;;;;;3.28;1.20;;;;;;;27.50;32.11;101773.06;5044543;28;20032;-70
2021/06/15 11:01:25;;;;;;;4.85;1.38;;;;;;;27.54;32.64;101768.88;5025062;28;20044;-70
2021/06/15 11:03:55;;;;;;;5.28;2.08;;;;;;;27.57;33.35;101768.34;5033776;28;20028;-71
2021/06/15 11:06:26;;;;;;;4.95;1.63;;;;;;;27.53;34.85;101761.91;5042956;28;20063;-71
2021/06/15 11:09:17;;;;;;;4.32;2.03;;;;;;;27.57;34.14;101760.38;5032398;28;20041;-71
2021/06/15 11:11:49;;;;;;;4.40;2.10;;;;;;;27.53;35.23;101761.91;5025856;28;20086;-70
2021/06/15 11:14:20;;;;;;;3.97;1.70;;;;;;;27.42;33.23;101763.63;5048880;28;20302;-71
2021/06/15 11:16:48;;;;;;;2.92;1.42;;;;;;;27.56;32.42;101758.78;5044499;28;20059;-72
2021/06/15 11:19:14;;;;;;;3.47;1.80;;;;;;;27.68;34.20;101764.75;5032219;28;20033;-72
2021/06/15 11:21:58;;;;;;;2.90;1.67;;;;;;;27.50;33.17;101763.22;5042158;28;20108;-71
2021/06/15 11:24:32;;;;;;;6.03;2.40;;;;;;;27.82;33.16;101762.56;5045722;28;20021;-72
2021/06/15 11:27:06;;;;;;;4.03;1.40;;;;;;;27.82;32.90;101769.72;5022679;28;20091;-73
2021/06/15 11:29:38;;;;;;;3.38;1.60;;;;;;;27.53;34.49;101775.22;5047406;28;20044;-72
2021/06/15 11:32:16;;;;;;;3.55;1.67;;;;;;;27.52;34.95;101760.28;5039748;28;20040;-72